Caribbean Princess — ZCDG8 — position and weather

sailwx.info

Track history (hours):
 
Tides and Currents Weather Stations Pressure Air Temp Water Temp Dewpoint Dewpoint Depression Visibility Wind Speed Wind Dir Waves Ship Positions

Caribbean Princess

Operator: Princess Cruises

Last reported at 2016-May-06 12:33 UTC. Time now 2016-May-06 13:02 UTC.
Position N 53°15' E 004°27'.

Type: Passenger vessel. MMSI: 310423000.

Date/timePositionNaut miles runAvg speedWind from/ knotsBaromVisibWave heightAir tempDewpointWater temp
2016-May-06 12:33N 53°15' E 004°27'1919.3
2016-May-06 11:33N 53°31' E 004°46'2020.2
2016-May-06 10:33N 53°37' E 005°18'2019.6
2016-May-06 09:33N 53°44' E 005°49'1918.8
2016-May-06 08:33N 53°50' E 006°19'1818.0
2016-May-06 07:33N 53°54' E 006°49'1818.0
2016-May-06 06:33N 53°59' E 007°18'1918.6
2016-May-06 05:33N 54°01' E 007°50'1817.6
2016-May-06 04:33N 53°60' E 008°19'1717.0
2016-May-06 03:34N 53°52' E 008°45'1615.8
2016-May-06 02:33N 53°53' E 009°11'1615.6
2016-May-06 01:33N 53°42' E 009°30'1111.1
2016-May-06 00:33N 53°34' E 009°43'9 8.9
2016-May-05 23:33N 53°33' E 009°58'1 1.1
2016-May-05 22:31N 53°32' E 009°60'0 0.0
2016-May-05 21:31N 53°32' E 009°60'0 0.0
2016-May-05 20:31N 53°32' E 009°60'0 0.0
2016-May-05 19:31N 53°32' E 009°60'0 0.0
2016-May-05 18:31N 53°32' E 009°60'0 0.0
2016-May-05 17:31N 53°32' E 009°60'0 0.0
2016-May-05 16:31N 53°32' E 009°60'0 0.0
2016-May-05 15:31N 53°32' E 009°60'0 0.0
2016-May-05 14:31N 53°32' E 009°60'0 0.0
2016-May-05 13:31N 53°32' E 009°60'0 0.0
2016-May-05 12:31N 53°32' E 009°60'0 0.0
2016-May-05 11:31N 53°32' E 009°60'0 0.0
2016-May-05 10:31N 53°32' E 009°60'0 0.0
2016-May-05 09:31N 53°32' E 009°60'0 0.0
2016-May-05 08:31N 53°32' E 009°60'0 0.0
2016-May-05 07:31N 53°32' E 009°60'0 0.0
2016-May-05 06:31N 53°32' E 009°60'0 0.0
2016-May-05 05:31N 53°32' E 009°60'0 0.0
2016-May-05 04:31N 53°32' E 009°60'0 0.0
2016-May-05 03:31N 53°32' E 009°60'0 0.0
2016-May-05 02:31N 53°32' E 009°60'0 0.0
2016-May-05 01:31N 53°32' E 009°60'0 0.0
2016-May-05 00:31N 53°32' E 009°60'0 0.0
2016-May-04 23:31N 53°32' E 009°60'0 0.0
2016-May-04 22:31N 53°32' E 009°60'0 0.0
2016-May-04 21:31N 53°32' E 009°60'0 0.0
2016-May-04 20:31N 53°32' E 009°60'0 0.0
2016-May-04 19:31N 53°32' E 009°60'0 0.0
2016-May-04 18:31N 53°32' E 009°60'0 0.0
2016-May-04 17:33N 53°32' E 009°60'4 3.5
2016-May-04 16:33N 53°32' E 009°54'8 8.1
2016-May-04 15:33N 53°34' E 009°40'10 9.9
2016-May-04 14:33N 53°42' E 009°30'1312.9
2016-May-04 13:33N 53°52' E 009°17'1312.9
2016-May-04 12:33N 53°51' E 008°55'1312.6
2016-May-04 11:33N 53°57' E 008°37'1616.0
2016-May-04 10:33N 53°59' E 008°10'1212.4
2016-May-04 09:33N 53°58' E 007°49'1110.6
2016-May-04 08:33N 54°03' E 007°33'1110.7
2016-May-04 07:33N 54°09' E 007°19'1211.9
2016-May-04 06:33N 54°09' E 006°58'1212.2
2016-May-04 05:33N 54°09' E 006°37'1414.2
2016-May-04 04:33N 54°08' E 006°13'1018.1
2016-May-04 04:00N 54°06' E 006°30'2552.1 270 / 101029.4 5.4 3.0 9.0 7.111.0
2016-May-04 03:30N 54°06' E 005°47'1414.7
2016-May-04 02:33N 54°04' E 005°23'1313.2
2016-May-04 01:33N 53°57' E 005°04'1414.2
2016-May-04 00:33N 53°44' E 004°55'1413.8
2016-May-03 23:33N 53°32' E 004°46'1716.8
2016-May-03 22:33N 53°16' E 004°35'1717.2
2016-May-03 21:34N 53°01' E 004°23'1716.9
2016-May-03 20:33N 52°46' E 004°08'1716.9
2016-May-03 19:33N 52°34' E 003°49'1716.5
2016-May-03 18:33N 52°21' E 003°32'1716.4
2016-May-03 17:31N 52°10' E 003°11'5016.8
2016-May-03 14:34N 51°33' E 002°17'1817.7
2016-May-03 13:34N 51°20' E 001°58'1817.8
2016-May-03 12:34N 51°06' E 001°41'1515.4
2016-May-03 11:34N 50°53' E 001°27'1514.3
2016-May-03 10:33N 50°40' E 001°17'3214.3
2016-May-03 08:18N 50°25' E 000°32'1114.4
2016-May-03 07:33N 50°22' E 000°16'1514.8
2016-May-03 06:33N 50°20' W 000°07'1615.9
2016-May-03 05:33N 50°16' W 000°31'2018.0
2016-May-03 04:27N 50°10' W 001°01'6219.4
2016-May-03 01:15N 49°54' W 002°35'1217.9
2016-May-03 00:34N 49°51' W 002°53'1817.7
2016-May-02 23:34N 49°44' W 003°19'1817.4
2016-May-02 22:32N 49°42' W 003°46'1917.2
2016-May-02 21:26N 49°40' W 004°15'7013.8
2016-May-02 16:19N 49°55' W 006°01'1718.4
2016-May-02 15:24N 50°12' W 006°01'1818.0
2016-May-02 14:25N 50°30' W 006°01'1517.5
2016-May-02 13:33N 50°45' W 006°01'2017.4
2016-May-02 12:25N 51°05' W 006°00'5318.5
2016-May-02 09:33N 51°58' W 005°55'1919.6
2016-May-02 08:34N 52°14' W 005°38'9312.5
2016-May-02 01:08N 53°45' W 005°06'5111.2
2016-May-01 20:33N 53°34' W 003°41'1111.1
2016-May-01 19:33N 53°33' W 003°22'1110.7
2016-May-01 18:33N 53°29' W 003°05'6 5.9
2016-May-01 17:33N 53°24' W 003°00'0 0.2
2016-May-01 16:31N 53°24' W 003°00'0 0.0
2016-May-01 15:31N 53°24' W 003°00'0 0.0
2016-May-01 14:31N 53°24' W 003°00'0 0.0
2016-May-01 13:31N 53°24' W 003°00'0 0.0
2016-May-01 12:31N 53°24' W 003°00'0 0.0
2016-May-01 11:31N 53°24' W 003°00'0 0.0
2016-May-01 10:31N 53°24' W 003°00'0 0.0
2016-May-01 09:28N 53°24' W 003°00'0 0.0
2016-May-01 08:28N 53°24' W 003°00'0 0.0
2016-May-01 07:28N 53°24' W 003°00'0 0.0
2016-May-01 06:28N 53°24' W 003°00'0 0.0
2016-May-01 05:34N 53°24' W 003°00'7 7.0
2016-May-01 04:33N 53°30' W 003°06'10 9.5
2016-May-01 03:33N 53°31' W 003°22'7 7.5
2016-May-01 02:33N 53°31' W 003°35'1212.5
2016-May-01 01:33N 53°31' W 003°56'1312.8
2016-May-01 00:33N 53°31' W 004°17'6812.2
2016-Apr-30 19:00N 52°36' W 005°24'7015.1 200 / 251024.3 5.4 3.0 9.2 6.911.0
2016-Apr-30 14:22N 51°44' W 006°40'2317.7
2016-Apr-30 13:05N 51°33' W 007°12'918.0
2016-Apr-30 12:33N 51°28' W 007°25'1817.9
2016-Apr-30 11:34N 51°19' W 007°49'1817.9
2016-Apr-30 10:33N 51°10' W 008°14'7516.3
2016-Apr-30 06:00N 50°30' W 009°54'20916.1 330 / 151025.2 5.4 8.3 2.912.0
2016-Apr-29 17:00N 48°42' W 014°30'18718.7 010 / 121024.2 5.4 3.010.2 7.714.0
2016-Apr-29 07:00N 47°06' W 018°30'1413.7 310 / 141022.4 5.4 2.011.2 6.615.0
2016-Apr-29 06:00N 47°00' W 018°48'2020.3 310 / 141022.6 5.4 2.011.2 6.615.0
2016-Apr-29 05:00N 46°48' W 019°12'38918.5 310 / 141023.0 5.4 2.011.2 7.915.0
2016-Apr-28 08:00N 43°30' W 027°06'54615.6 040 / 201019.8 5.4 2.013.511.617.0
2016-Apr-26 21:00N 41°24' W 039°06'1818.0 210 / 81012.1 5.4 2.017.216.519.0
2016-Apr-26 20:00N 41°24' W 039°30'   170 / 81011.2 5.4 2.017.616.619.0
Track history (hours):
 
Tides and Currents Weather Stations Pressure Air Temp Water Temp Dewpoint Dewpoint Depression Visibility Wind Speed Wind Dir Waves Ship Positions

Caribbean Princess

Operator: Princess Cruises

Last reported at 2016-May-06 12:33 UTC. Time now 2016-May-06 13:02 UTC.
Position N 53°15' E 004°27'.

Type: Passenger vessel. MMSI: 310423000.

Date/timePositionNaut miles runAvg speedWind from/ knotsBaromVisibWave heightAir tempDewpointWater temp
2016-May-06 12:33N 53°15' E 004°27'1919.3
2016-May-06 11:33N 53°31' E 004°46'2020.2
2016-May-06 10:33N 53°37' E 005°18'2019.6
2016-May-06 09:33N 53°44' E 005°49'1918.8
2016-May-06 08:33N 53°50' E 006°19'1818.0
2016-May-06 07:33N 53°54' E 006°49'1818.0
2016-May-06 06:33N 53°59' E 007°18'1918.6
2016-May-06 05:33N 54°01' E 007°50'1817.6
2016-May-06 04:33N 53°60' E 008°19'1717.0
2016-May-06 03:34N 53°52' E 008°45'1615.8
2016-May-06 02:33N 53°53' E 009°11'1615.6
2016-May-06 01:33N 53°42' E 009°30'1111.1
2016-May-06 00:33N 53°34' E 009°43'9 8.9
2016-May-05 23:33N 53°33' E 009°58'1 1.1
2016-May-05 22:31N 53°32' E 009°60'0 0.0
2016-May-05 21:31N 53°32' E 009°60'0 0.0
2016-May-05 20:31N 53°32' E 009°60'0 0.0
2016-May-05 19:31N 53°32' E 009°60'0 0.0
2016-May-05 18:31N 53°32' E 009°60'0 0.0
2016-May-05 17:31N 53°32' E 009°60'0 0.0
2016-May-05 16:31N 53°32' E 009°60'0 0.0
2016-May-05 15:31N 53°32' E 009°60'0 0.0
2016-May-05 14:31N 53°32' E 009°60'0 0.0
2016-May-05 13:31N 53°32' E 009°60'0 0.0
2016-May-05 12:31N 53°32' E 009°60'0 0.0
2016-May-05 11:31N 53°32' E 009°60'0 0.0
2016-May-05 10:31N 53°32' E 009°60'0 0.0
2016-May-05 09:31N 53°32' E 009°60'0 0.0
2016-May-05 08:31N 53°32' E 009°60'0 0.0
2016-May-05 07:31N 53°32' E 009°60'0 0.0
2016-May-05 06:31N 53°32' E 009°60'0 0.0
2016-May-05 05:31N 53°32' E 009°60'0 0.0
2016-May-05 04:31N 53°32' E 009°60'0 0.0
2016-May-05 03:31N 53°32' E 009°60'0 0.0
2016-May-05 02:31N 53°32' E 009°60'0 0.0
2016-May-05 01:31N 53°32' E 009°60'0 0.0
2016-May-05 00:31N 53°32' E 009°60'0 0.0
2016-May-04 23:31N 53°32' E 009°60'0 0.0
2016-May-04 22:31N 53°32' E 009°60'0 0.0
2016-May-04 21:31N 53°32' E 009°60'0 0.0
2016-May-04 20:31N 53°32' E 009°60'0 0.0
2016-May-04 19:31N 53°32' E 009°60'0 0.0
2016-May-04 18:31N 53°32' E 009°60'0 0.0
2016-May-04 17:33N 53°32' E 009°60'4 3.5
2016-May-04 16:33N 53°32' E 009°54'8 8.1
2016-May-04 15:33N 53°34' E 009°40'10 9.9
2016-May-04 14:33N 53°42' E 009°30'1312.9
2016-May-04 13:33N 53°52' E 009°17'1312.9
2016-May-04 12:33N 53°51' E 008°55'1312.6
2016-May-04 11:33N 53°57' E 008°37'1616.0
2016-May-04 10:33N 53°59' E 008°10'1212.4
2016-May-04 09:33N 53°58' E 007°49'1110.6
2016-May-04 08:33N 54°03' E 007°33'1110.7
2016-May-04 07:33N 54°09' E 007°19'1211.9
2016-May-04 06:33N 54°09' E 006°58'1212.2
2016-May-04 05:33N 54°09' E 006°37'1414.2
2016-May-04 04:33N 54°08' E 006°13'1018.1
2016-May-04 04:00N 54°06' E 006°30'2552.1 270 / 101029.4 5.4 3.0 9.0 7.111.0
2016-May-04 03:30N 54°06' E 005°47'1414.7
2016-May-04 02:33N 54°04' E 005°23'1313.2
2016-May-04 01:33N 53°57' E 005°04'1414.2
2016-May-04 00:33N 53°44' E 004°55'1413.8
2016-May-03 23:33N 53°32' E 004°46'1716.8
2016-May-03 22:33N 53°16' E 004°35'1717.2
2016-May-03 21:34N 53°01' E 004°23'1716.9
2016-May-03 20:33N 52°46' E 004°08'1716.9
2016-May-03 19:33N 52°34' E 003°49'1716.5
2016-May-03 18:33N 52°21' E 003°32'1716.4
2016-May-03 17:31N 52°10' E 003°11'5016.8
2016-May-03 14:34N 51°33' E 002°17'1817.7
2016-May-03 13:34N 51°20' E 001°58'1817.8
2016-May-03 12:34N 51°06' E 001°41'1515.4
2016-May-03 11:34N 50°53' E 001°27'1514.3
2016-May-03 10:33N 50°40' E 001°17'3214.3
2016-May-03 08:18N 50°25' E 000°32'1114.4
2016-May-03 07:33N 50°22' E 000°16'1514.8
2016-May-03 06:33N 50°20' W 000°07'1615.9
2016-May-03 05:33N 50°16' W 000°31'2018.0
2016-May-03 04:27N 50°10' W 001°01'6219.4
2016-May-03 01:15N 49°54' W 002°35'1217.9
2016-May-03 00:34N 49°51' W 002°53'1817.7
2016-May-02 23:34N 49°44' W 003°19'1817.4
2016-May-02 22:32N 49°42' W 003°46'1917.2
2016-May-02 21:26N 49°40' W 004°15'7013.8
2016-May-02 16:19N 49°55' W 006°01'1718.4
2016-May-02 15:24N 50°12' W 006°01'1818.0
2016-May-02 14:25N 50°30' W 006°01'1517.5
2016-May-02 13:33N 50°45' W 006°01'2017.4
2016-May-02 12:25N 51°05' W 006°00'5318.5
2016-May-02 09:33N 51°58' W 005°55'1919.6
2016-May-02 08:34N 52°14' W 005°38'9312.5
2016-May-02 01:08N 53°45' W 005°06'5111.2
2016-May-01 20:33N 53°34' W 003°41'1111.1
2016-May-01 19:33N 53°33' W 003°22'1110.7
2016-May-01 18:33N 53°29' W 003°05'6 5.9
2016-May-01 17:33N 53°24' W 003°00'0 0.2
2016-May-01 16:31N 53°24' W 003°00'0 0.0
2016-May-01 15:31N 53°24' W 003°00'0 0.0
2016-May-01 14:31N 53°24' W 003°00'0 0.0
2016-May-01 13:31N 53°24' W 003°00'0 0.0
2016-May-01 12:31N 53°24' W 003°00'0 0.0
2016-May-01 11:31N 53°24' W 003°00'0 0.0
2016-May-01 10:31N 53°24' W 003°00'0 0.0
2016-May-01 09:28N 53°24' W 003°00'0 0.0
2016-May-01 08:28N 53°24' W 003°00'0 0.0
2016-May-01 07:28N 53°24' W 003°00'0 0.0
2016-May-01 06:28N 53°24' W 003°00'0 0.0
2016-May-01 05:34N 53°24' W 003°00'7 7.0
2016-May-01 04:33N 53°30' W 003°06'10 9.5
2016-May-01 03:33N 53°31' W 003°22'7 7.5
2016-May-01 02:33N 53°31' W 003°35'1212.5
2016-May-01 01:33N 53°31' W 003°56'1312.8
2016-May-01 00:33N 53°31' W 004°17'6812.2
2016-Apr-30 19:00N 52°36' W 005°24'7015.1 200 / 251024.3 5.4 3.0 9.2 6.911.0
2016-Apr-30 14:22N 51°44' W 006°40'2317.7
2016-Apr-30 13:05N 51°33' W 007°12'918.0
2016-Apr-30 12:33N 51°28' W 007°25'1817.9
2016-Apr-30 11:34N 51°19' W 007°49'1817.9
2016-Apr-30 10:33N 51°10' W 008°14'7516.3
2016-Apr-30 06:00N 50°30' W 009°54'20916.1 330 / 151025.2 5.4 8.3 2.912.0
2016-Apr-29 17:00N 48°42' W 014°30'18718.7 010 / 121024.2 5.4 3.010.2 7.714.0
2016-Apr-29 07:00N 47°06' W 018°30'1413.7 310 / 141022.4 5.4 2.011.2 6.615.0
2016-Apr-29 06:00N 47°00' W 018°48'2020.3 310 / 141022.6 5.4 2.011.2 6.615.0
2016-Apr-29 05:00N 46°48' W 019°12'38918.5 310 / 141023.0 5.4 2.011.2 7.915.0
2016-Apr-28 08:00N 43°30' W 027°06'54615.6 040 / 201019.8 5.4 2.013.511.617.0
2016-Apr-26 21:00N 41°24' W 039°06'1818.0 210 / 81012.1 5.4 2.017.216.519.0
2016-Apr-26 20:00N 41°24' W 039°30'   170 / 81011.2 5.4 2.017.616.619.0

Dump ship's entire track history